Time;durP1;ratioP1;P1;durP2;ratioP2;P2;SDS_P1;SDS_P2;PMS_P1;PMS_P2;Temp;Humidity;BMP_temperature;BMP_pressure;BME280_temperature;BME280_humidity;BME280_pressure;Samples;Min_cycle;Max_cycle;Signal;HPM_P1;HPM_P2
2022/06/20 00:03:29;;;;;;;3.97;1.20;;;21.10;42.00;;;18.83;44.96;100582.94;12241085;19;20010;-81
2022/06/20 00:07:30;;;;;;;2.15;1.05;;;20.90;42.60;;;18.77;44.89;100632.78;12241486;19;20015;-80
2022/06/20 00:11:39;;;;;;;1.65;1.17;;;20.80;42.60;;;18.66;45.42;100639.97;12241622;19;20018;-80
2022/06/20 00:15:41;;;;;;;2.38;1.58;;;20.70;42.80;;;18.53;45.25;100654.31;12235658;19;20035;-80
2022/06/20 00:19:43;;;;;;;3.40;1.30;;;20.60;43.10;;;18.63;45.16;100664.06;12241039;19;20038;-80
2022/06/20 00:23:45;;;;;;;3.28;1.33;;;20.80;43.50;;;18.64;45.28;100692.19;12236094;19;20018;-80
2022/06/20 00:27:47;;;;;;;2.85;1.05;;;20.50;43.80;;;18.67;45.36;100684.00;12236624;19;20125;-80
2022/06/20 00:31:50;;;;;;;3.25;1.25;;;20.50;43.90;;;18.82;45.52;100697.66;12237452;19;20082;-79
2022/06/20 00:35:53;;;;;;;5.75;1.45;;;20.50;43.80;;;18.70;45.78;100666.03;12236596;19;20025;-79
2022/06/20 00:39:54;;;;;;;3.13;1.15;;;20.50;44.00;;;18.76;45.70;100705.16;12238891;19;20513;-79
2022/06/20 00:43:57;;;;;;;3.10;1.50;;;20.40;44.00;;;18.66;45.73;100737.84;12239113;19;20029;-79
2022/06/20 00:48:09;;;;;;;2.22;1.42;;;20.40;44.50;;;18.78;46.35;100816.16;12236203;19;20026;-79
2022/06/20 00:52:46;;;;;;;2.58;1.80;;;20.40;44.80;;;18.73;46.70;100868.63;12238837;19;20044;-79
2022/06/20 00:57:29;;;;;;;2.72;1.23;;;20.40;45.00;;;18.87;46.29;100849.75;12234047;19;20035;-79
2022/06/20 01:01:38;;;;;;;4.97;1.70;;;20.50;45.00;;;18.86;46.67;100866.59;12240679;19;20017;-79
2022/06/20 01:05:51;;;;;;;3.35;1.60;;;20.70;45.30;;;19.02;46.87;100850.22;12226382;19;20007;-79
2022/06/20 01:09:57;;;;;;;1.52;1.10;;;20.60;45.40;;;18.97;46.84;100834.72;12233801;19;20007;-79
2022/06/20 01:13:59;;;;;;;2.47;1.48;;;20.60;45.20;;;18.84;46.36;100815.63;12237610;19;20014;-79
2022/06/20 01:18:03;;;;;;;3.90;1.55;;;20.80;45.00;;;18.95;46.76;100767.03;12232291;19;20034;-81
2022/06/20 01:22:59;;;;;;;2.38;1.25;;;20.70;45.40;;;18.92;47.00;100740.84;12235609;19;20038;-81
2022/06/20 01:27:24;;;;;;;2.42;1.50;;;20.70;45.70;;;18.85;47.19;100727.34;12229853;19;20011;-81
2022/06/20 01:31:33;;;;;;;3.20;1.40;;;20.70;45.30;;;18.73;47.18;100688.72;12233914;19;20349;-80
2022/06/20 01:40:01;;;;;;;1.90;1.00;;;20.50;45.50;;;18.68;47.49;100728.81;12234507;19;20430;-81
2022/06/20 01:44:05;;;;;;;3.10;1.40;;;20.80;46.00;;;18.62;47.52;100732.00;12235434;19;20026;-81
2022/06/20 01:48:17;;;;;;;1.55;1.13;;;20.50;45.80;;;18.75;47.71;100792.63;12233587;19;20014;-80
2022/06/20 01:52:22;;;;;;;2.35;1.45;;;20.50;46.00;;;18.82;47.58;100840.53;12234219;19;20014;-80
2022/06/20 01:56:26;;;;;;;3.35;1.90;;;20.70;46.30;;;18.81;48.08;100855.59;12234187;19;20018;-80
2022/06/20 02:00:28;;;;;;;2.23;1.50;;;20.60;46.30;;;18.84;47.59;100841.25;12233974;19;20026;-80
2022/06/20 02:04:35;;;;;;;2.80;1.70;;;20.60;45.90;;;18.83;47.80;100843.06;12229956;19;20417;-81
2022/06/20 02:08:39;;;;;;;2.03;1.38;;;20.60;46.40;;;18.78;47.88;100792.34;12233811;19;20025;-80
2022/06/20 02:12:41;;;;;;;3.63;1.70;;;20.60;46.00;;;18.50;47.81;100726.00;12235187;19;20031;-80
2022/06/20 02:16:52;;;;;;;5.57;1.77;;;20.60;45.60;;;18.69;48.13;100724.38;12228265;19;20029;-80
2022/06/20 02:20:57;;;;;;;3.78;1.60;;;20.80;46.10;;;18.32;48.26;100739.03;12234928;19;20045;-80
2022/06/20 02:25:14;;;;;;;3.28;1.80;;;20.40;46.00;;;18.39;48.67;100786.06;12232315;19;20114;-80
2022/06/20 02:29:24;;;;;;;3.70;1.73;;;20.30;46.90;;;18.42;48.56;100788.47;12245189;19;20272;-81
2022/06/20 02:33:29;;;;;;;1.70;1.48;;;20.20;46.40;;;18.43;48.44;100824.53;12243643;19;20401;-81
2022/06/20 02:37:30;;;;;;;4.43;2.25;;;20.30;46.50;;;18.28;48.62;100797.59;12242665;19;20104;-80
2022/06/20 02:41:34;;;;;;;3.17;2.22;;;20.30;46.10;;;18.14;48.64;100775.00;12244794;19;20123;-81
2022/06/20 02:45:39;;;;;;;5.45;2.67;;;20.20;46.50;;;18.38;48.63;100774.66;12242538;19;20416;-80
2022/06/20 02:49:42;;;;;;;;;;;20.20;46.70;;;18.37;47.59;100746.56;12243944;19;20476;-80
2022/06/20 02:53:49;;;;;;;3.53;2.22;;;20.30;45.10;;;18.41;48.37;100747.94;12245550;19;19980;-80
2022/06/20 02:57:59;;;;;;;3.42;2.05;;;20.20;46.20;;;18.36;48.64;100644.41;12240204;19;20774;-81
2022/06/20 03:02:11;;;;;;;3.95;2.53;;;20.30;46.50;;;18.36;49.19;100713.16;12243973;19;20044;-80
2022/06/20 03:06:38;;;;;;;3.03;2.33;;;20.10;47.00;;;18.31;48.89;100725.97;12236663;19;20483;-81
2022/06/20 03:10:45;;;;;;;5.40;2.42;;;20.10;46.80;;;17.95;48.95;100699.09;12244133;19;20024;-80
2022/06/20 03:14:56;;;;;;;2.75;1.88;;;20.10;46.90;;;18.37;49.37;100746.56;12241527;19;20029;-80
2022/06/20 03:18:59;;;;;;;5.97;2.53;;;20.00;47.40;;;18.36;48.80;100731.66;12239945;19;20025;-80
2022/06/20 03:23:30;;;;;;;3.83;2.53;;;20.10;47.10;;;18.33;49.27;100642.03;12244443;19;20015;-80
2022/06/20 03:27:36;;;;;;;3.60;2.70;;;20.10;47.60;;;18.34;49.30;100683.38;12244501;19;20017;-80
2022/06/20 03:31:38;;;;;;;6.00;2.55;;;20.10;47.50;;;18.31;49.16;100601.72;12246343;19;20046;-80
2022/06/20 03:35:46;;;;;;;2.92;2.10;;;20.10;46.90;;;18.20;49.41;100639.66;12238421;19;20038;-80
2022/06/20 03:39:50;;;;;;;3.65;1.98;;;20.00;47.20;;;18.08;49.47;100664.53;12243388;19;20018;-80
2022/06/20 03:44:18;;;;;;;3.78;2.05;;;20.30;47.50;;;18.25;49.86;100678.91;12239797;19;20018;-80
2022/06/20 03:48:25;;;;;;;3.38;2.10;;;20.00;47.80;;;18.19;49.51;100611.56;12241349;19;20030;-80
2022/06/20 03:52:35;;;;;;;2.17;1.83;;;20.20;47.30;;;18.14;49.69;100669.28;12245634;19;20006;-80
2022/06/20 03:56:49;;;;;;;3.13;2.13;;;20.00;47.60;;;18.15;49.74;100694.75;12236596;19;20374;-80
2022/06/20 04:00:59;;;;;;;3.50;1.77;;;20.00;47.60;;;18.20;49.88;100649.38;12243230;19;20018;-80
2022/06/20 04:05:33;;;;;;;4.57;2.15;;;19.90;47.80;;;18.07;49.81;100617.94;12240418;19;20011;-80
2022/06/20 04:14:38;;;;;;;3.28;1.83;;;19.80;48.10;;;18.01;50.12;100651.03;12241306;19;20504;-79
2022/06/20 04:19:10;;;;;;;3.53;1.85;;;20.00;48.30;;;18.20;50.17;100689.91;12242716;19;20019;-79
2022/06/20 04:23:22;;;;;;;3.80;2.05;;;20.20;48.50;;;18.20;50.34;100665.25;12241472;19;20018;-79
2022/06/20 04:27:35;;;;;;;4.07;2.10;;;19.90;48.10;;;18.12;50.22;100637.69;12242187;19;20011;-79
2022/06/20 04:31:46;;;;;;;4.15;2.45;;;20.00;48.30;;;18.16;50.52;100654.13;12240081;19;20014;-79
2022/06/20 04:36:33;;;;;;;3.70;2.45;;;19.90;48.20;;;18.16;50.51;100640.06;12232114;19;20106;-79
2022/06/20 04:40:51;;;;;;;2.45;2.03;;;20.00;48.90;;;18.05;50.88;100615.41;12241493;19;20074;-79
2022/06/20 04:45:04;;;;;;;2.47;2.10;;;20.00;48.50;;;18.04;50.64;100589.97;12239098;19;20019;-79
2022/06/20 04:49:12;;;;;;;4.25;2.30;;;20.00;48.60;;;18.03;50.66;100585.66;12239545;19;20172;-79
2022/06/20 04:53:20;;;;;;;3.63;2.22;;;20.00;48.40;;;17.73;50.65;100561.91;12240272;19;20010;-79
2022/06/20 04:57:27;;;;;;;3.15;2.35;;;20.00;47.90;;;17.85;50.83;100603.16;12235514;19;20518;-78
2022/06/20 05:01:33;;;;;;;2.75;2.50;;;20.30;48.60;;;17.94;50.85;100588.28;12240177;19;20025;-79
2022/06/20 05:05:47;;;;;;;3.05;2.17;;;19.90;48.50;;;17.98;51.11;100605.53;12238319;19;20038;-79
2022/06/20 05:10:23;;;;;;;3.40;2.20;;;19.90;48.80;;;17.98;51.00;100629.31;12240988;19;20025;-80
2022/06/20 05:14:33;;;;;;;;;;;19.80;48.50;;;17.84;49.79;100659.56;12239048;19;20116;-80
2022/06/20 05:18:42;;;;;;;3.33;1.60;;;19.80;47.00;;;17.96;50.89;100647.09;12235060;19;19922;-79
2022/06/20 05:22:58;;;;;;;2.97;2.03;;;19.80;48.50;;;18.03;51.17;100674.66;12236320;19;20346;-79
2022/06/20 05:27:06;;;;;;;;;;;19.80;49.10;;;17.71;49.77;100585.81;12231611;19;20485;-79
2022/06/20 05:31:10;;;;;;;6.07;2.70;;;20.00;47.20;;;17.59;50.67;100582.44;12232999;19;19919;-79
2022/06/20 05:35:21;;;;;;;3.80;2.15;;;20.10;48.20;;;17.94;51.23;100705.38;12234782;19;20018;-78
2022/06/20 05:39:55;;;;;;;3.67;2.25;;;20.00;49.00;;;17.95;51.13;100732.63;12235340;19;20021;-79
2022/06/20 05:44:00;;;;;;;2.50;2.10;;;19.70;49.10;;;17.89;51.02;100787.66;12237136;19;20007;-78
2022/06/20 05:48:05;;;;;;;6.07;2.13;;;19.70;48.80;;;17.75;51.14;100837.34;12236602;19;20014;-78
2022/06/20 05:52:11;;;;;;;5.30;1.95;;;19.70;49.10;;;17.86;51.39;100924.47;12228043;19;20010;-78
2022/06/20 05:56:33;;;;;;;4.10;1.75;;;19.70;49.30;;;17.68;51.83;100940.81;12233040;19;20352;-79
2022/06/20 06:00:37;;;;;;;4.65;1.58;;;19.60;49.60;;;17.48;51.69;100902.03;12235095;19;20018;-79
2022/06/20 06:04:52;;;;;;;3.83;1.42;;;19.60;49.20;;;17.66;52.01;100894.38;12246303;19;20118;-78
2022/06/20 06:09:11;;;;;;;2.22;1.52;;;19.50;49.60;;;17.56;52.26;100920.72;12246359;19;20463;-79
2022/06/20 06:13:42;;;;;;;1.48;1.10;;;19.70;49.70;;;17.60;51.91;100911.56;12247734;19;20035;-79
2022/06/20 06:17:59;;;;;;;3.50;1.48;;;19.50;49.30;;;17.39;52.22;100808.56;12244249;19;20488;-79
2022/06/20 06:22:29;;;;;;;3.17;1.65;;;19.40;50.00;;;17.47;51.96;100692.59;12243650;19;20361;-79
2022/06/20 06:26:33;;;;;;;2.65;1.50;;;19.30;50.20;;;17.23;52.27;100582.03;12245875;19;20020;-79
2022/06/20 06:30:42;;;;;;;2.60;1.45;;;19.50;49.80;;;17.15;52.60;100612.69;12245708;19;20385;-79
2022/06/20 06:34:55;;;;;;;2.28;1.30;;;19.60;50.30;;;16.93;52.52;100551.19;12246588;19;20014;-79
2022/06/20 06:39:12;;;;;;;2.00;1.23;;;19.10;49.70;;;16.99;52.78;100576.19;12244571;19;20086;-80
2022/06/20 06:43:28;;;;;;;2.95;1.52;;;19.20;50.10;;;16.84;52.76;100574.84;12248436;19;20352;-80
2022/06/20 06:47:44;;;;;;;3.83;1.30;;;18.90;50.00;;;16.78;53.20;100569.13;12243613;19;20395;-80
2022/06/20 06:52:17;;;;;;;2.65;0.95;;;18.80;50.20;;;16.76;52.67;100601.81;12247254;19;20018;-80
2022/06/20 06:56:40;;;;;;;3.40;1.20;;;18.70;50.30;;;16.63;53.13;100604.63;12240543;19;20010;-79
2022/06/20 07:00:58;;;;;;;2.00;1.23;;;18.70;50.70;;;16.87;53.06;100645.78;12246050;19;20464;-80
2022/06/20 07:05:03;;;;;;;1.90;1.20;;;18.70;50.90;;;16.88;52.82;100629.03;12240615;19;20487;-79
2022/06/20 07:09:19;;;;;;;1.83;1.20;;;18.80;50.50;;;17.05;52.95;100636.34;12246078;19;20010;-79
2022/06/20 07:13:34;;;;;;;4.35;1.60;;;18.80;51.10;;;17.11;53.10;100627.91;12242673;19;20011;-79
2022/06/20 07:18:03;;;;;;;2.17;1.30;;;18.90;51.20;;;17.25;52.97;100637.28;12235547;19;20022;-79
2022/06/20 07:22:05;;;;;;;1.75;1.15;;;19.00;51.20;;;17.19;52.83;100629.91;12247075;19;20015;-82
2022/06/20 07:26:06;;;;;;;2.30;1.40;;;19.00;50.70;;;17.21;52.89;100631.44;12240311;19;20007;-81
2022/06/20 07:30:15;;;;;;;1.67;1.17;;;19.10;50.80;;;17.22;53.04;100609.38;12246643;19;20018;-79
2022/06/20 07:34:37;;;;;;;3.72;1.77;;;19.10;51.10;;;17.28;53.14;100646.75;12246562;19;20040;-79
2022/06/20 07:38:56;;;;;;;1.92;1.30;;;19.10;50.70;;;17.37;53.23;100638.91;12238961;19;20381;-80
2022/06/20 07:43:19;;;;;;;2.00;1.38;;;19.20;50.80;;;17.35;53.43;100634.72;12245256;19;20010;-80
2022/06/20 07:47:30;;;;;;;2.42;1.20;;;19.20;51.40;;;17.38;53.48;100635.28;12241608;19;20035;-81
2022/06/20 07:51:45;;;;;;;1.75;1.42;;;19.30;50.80;;;17.22;53.53;100648.13;12215132;19;20032;-81
2022/06/20 07:55:56;;;;;;;2.22;1.73;;;19.20;51.10;;;17.16;53.42;100675.03;12225869;19;20026;-80
2022/06/20 08:00:22;;;;;;;3.10;1.58;;;19.20;51.00;;;17.48;53.65;100748.88;12227183;19;20068;-81
2022/06/20 08:04:32;;;;;;;;;;;19.20;51.40;;;17.55;52.42;100772.94;12229051;19;20027;-81
2022/06/20 08:09:08;;;;;;;2.35;1.35;;;19.30;49.90;;;17.56;53.44;100786.03;12226431;19;19935;-81
2022/06/20 08:13:24;;;;;;;3.10;1.23;;;19.40;51.10;;;17.54;53.60;100768.66;12225662;19;20014;-81
2022/06/20 08:17:28;;;;;;;2.97;1.50;;;19.40;51.60;;;17.77;53.40;100795.75;12223896;19;20631;-80
2022/06/20 08:21:40;;;;;;;4.55;1.55;;;19.60;51.10;;;17.63;53.68;100752.03;12224068;19;20494;-80
2022/06/20 08:25:53;;;;;;;3.30;1.23;;;19.60;51.50;;;17.86;53.44;100763.31;12224777;19;20020;-79
2022/06/20 08:30:15;;;;;;;2.97;1.30;;;19.70;51.40;;;17.82;53.84;100709.91;12225225;19;20107;-80
2022/06/20 08:35:10;;;;;;;3.70;1.50;;;19.80;51.30;;;17.85;53.33;100683.25;12227234;19;20389;-81
2022/06/20 08:39:33;;;;;;;2.15;1.10;;;19.80;51.50;;;17.83;53.70;100634.16;12221008;19;20014;-81
2022/06/20 08:43:59;;;;;;;2.70;1.50;;;19.70;51.30;;;17.73;53.88;100633.22;12228340;19;20616;-80
2022/06/20 08:48:28;;;;;;;2.88;1.52;;;19.70;51.00;;;17.79;53.98;100635.38;12225380;19;20021;-81
2022/06/20 08:53:19;;;;;;;2.83;1.27;;;19.70;51.30;;;17.82;53.95;100693.22;12229315;19;20034;-82
2022/06/20 08:57:45;;;;;;;1.90;1.75;;;19.60;52.00;;;17.87;54.10;100738.56;12224204;19;20077;-81
2022/06/20 09:02:07;;;;;;;3.22;1.90;;;19.60;52.10;;;17.83;54.08;100737.16;12225238;19;20025;-81
2022/06/20 09:06:30;;;;;;;3.80;1.75;;;19.50;51.40;;;17.96;53.80;100758.94;12223587;19;20018;-81
2022/06/20 09:11:00;;;;;;;3.03;1.92;;;19.70;51.50;;;17.98;54.17;100762.25;12223885;19;20365;-80
2022/06/20 09:15:18;;;;;;;3.53;1.98;;;19.70;51.60;;;17.98;53.88;100762.25;12226499;19;20663;-80
2022/06/20 09:19:52;;;;;;;3.75;2.50;;;19.80;51.00;;;18.00;53.99;100760.31;12223959;19;20014;-81
2022/06/20 09:23:59;;;;;;;2.45;2.15;;;19.80;51.80;;;18.01;53.78;100746.16;12224226;19;20025;-81
2022/06/20 09:28:17;;;;;;;5.68;3.33;;;19.80;51.30;;;17.92;54.10;100717.88;12225765;19;20030;-82
2022/06/20 09:32:47;;;;;;;7.20;2.65;;;19.80;51.20;;;18.01;54.17;100746.16;12222537;19;20023;-81
2022/06/20 09:37:40;;;;;;;3.70;2.13;;;19.90;51.50;;;18.03;54.09;100720.41;12224099;19;20319;-82
2022/06/20 09:41:57;;;;;;;2.53;2.33;;;19.90;51.90;;;18.09;54.35;100741.06;12235396;19;20023;-81
2022/06/20 09:46:34;;;;;;;3.03;2.70;;;19.90;51.60;;;18.12;54.21;100729.38;12234274;19;20910;-80
2022/06/20 09:51:32;;;;;;;3.55;2.60;;;19.90;51.60;;;18.16;54.04;100740.50;12235021;19;20014;-82
2022/06/20 09:56:11;;;;;;;3.30;2.92;;;20.00;51.50;;;18.20;54.23;100744.53;12232376;19;20024;-81
2022/06/20 10:00:29;;;;;;;3.05;2.47;;;20.00;52.10;;;18.18;54.36;100738.56;12235671;19;20050;-81
2022/06/20 10:04:53;;;;;;;4.13;3.00;;;20.10;51.80;;;18.29;54.16;100731.38;12235397;19;20018;-80
2022/06/20 10:09:21;;;;;;;3.88;2.85;;;20.10;51.50;;;18.28;54.39;100719.13;12234535;19;20352;-81
2022/06/20 10:13:52;;;;;;;3.95;2.65;;;20.10;51.60;;;18.33;54.04;100726.63;12235125;19;20424;-80
2022/06/20 10:18:21;;;;;;;4.03;3.03;;;20.10;51.60;;;18.21;54.43;100704.78;12228748;19;20085;-79
2022/06/20 10:22:57;;;;;;;3.60;3.28;;;20.10;51.50;;;18.35;54.24;100736.09;12234679;19;20021;-79
2022/06/20 10:28:16;;;;;;;3.33;3.10;;;20.10;51.80;;;18.33;54.04;100724.84;12229915;19;20015;-78
2022/06/20 10:32:25;;;;;;;3.20;2.80;;;20.20;52.00;;;18.06;54.47;100683.16;12229036;19;20014;-79
2022/06/20 10:37:00;;;;;;;4.18;3.53;;;20.20;51.50;;;18.39;54.15;100752.56;12228537;19;20372;-80
2022/06/20 10:41:07;;;;;;;5.68;3.13;;;20.20;51.60;;;18.37;54.23;100773.00;12234308;19;20074;-80
2022/06/20 10:45:46;;;;;;;5.18;3.67;;;20.20;51.40;;;18.33;54.43;100758.38;12232828;19;20057;-79
2022/06/20 10:50:39;;;;;;;3.80;3.45;;;20.20;51.80;;;18.23;54.31;100725.78;12229005;19;20350;-79
2022/06/20 10:55:04;;;;;;;3.80;3.42;;;20.20;51.70;;;18.26;54.64;100754.59;12232645;19;20015;-79
2022/06/20 10:59:48;;;;;;;3.33;3.03;;;20.20;52.10;;;18.19;54.43;100756.94;12232019;19;20125;-78
2022/06/20 11:04:31;;;;;;;3.72;3.35;;;20.30;51.90;;;18.36;54.64;100784.53;12233558;19;20021;-81
2022/06/20 11:08:46;;;;;;;3.00;2.50;;;20.20;51.80;;;18.36;54.86;100787.19;12230665;19;20047;-79
2022/06/20 11:13:29;;;;;;;3.42;2.97;;;20.20;51.70;;;18.25;54.45;100758.19;12233222;19;20018;-79
2022/06/20 11:18:23;;;;;;;2.88;2.45;;;20.20;51.70;;;18.35;54.48;100780.22;12226990;19;20767;-79
2022/06/20 11:22:48;;;;;;;2.67;2.47;;;20.20;51.80;;;18.31;54.76;100790.25;12232237;19;20031;-79
2022/06/20 11:27:41;;;;;;;2.50;2.30;;;20.10;52.50;;;18.32;54.59;100791.06;12225947;19;20539;-79
2022/06/20 11:32:15;;;;;;;2.80;2.60;;;20.10;52.30;;;18.33;54.76;100813.88;12231723;19;20587;-79
2022/06/20 11:36:17;;;;;;;2.53;2.33;;;20.10;52.20;;;18.18;54.63;100791.44;12224863;19;20111;-79
2022/06/20 11:40:31;;;;;;;2.90;2.55;;;20.10;52.20;;;18.26;55.08;100808.31;12229437;19;20078;-79
2022/06/20 11:45:25;;;;;;;3.20;2.60;;;20.20;52.20;;;18.39;55.06;100815.16;12225169;19;20045;-79
2022/06/20 11:50:18;;;;;;;2.72;1.70;;;20.20;52.50;;;18.42;54.84;100817.56;12233130;19;20379;-79
2022/06/20 11:54:49;;;;;;;3.28;1.80;;;20.20;52.00;;;18.41;55.17;100818.50;12227978;19;20087;-79
2022/06/20 11:59:17;;;;;;;3.17;1.73;;;20.20;52.20;;;18.43;55.11;100833.28;12225558;19;20640;-79
2022/06/20 12:03:40;;;;;;;4.10;1.60;;;20.20;52.70;;;18.46;55.30;100832.19;12224727;19;20386;-79
2022/06/20 12:08:19;;;;;;;1.65;1.40;;;20.20;52.60;;;18.50;55.34;100845.00;12226764;19;20042;-80
2022/06/20 12:12:40;;;;;;;2.85;1.63;;;20.30;52.80;;;18.50;55.16;100850.31;12223727;19;20038;-79
2022/06/20 12:17:04;;;;;;;1.15;1.08;;;20.30;52.70;;;18.46;55.21;100851.53;12223835;19;20014;-79
2022/06/20 12:26:20;;;;;;;1.30;1.20;;;20.30;52.30;;;18.41;55.41;100845.78;12219000;19;20498;-79
2022/06/20 12:30:22;;;;;;;1.05;0.90;;;20.30;52.30;;;18.40;55.14;100846.78;12220843;19;20039;-80
2022/06/20 12:34:23;;;;;;;1.98;1.10;;;20.50;52.40;;;18.44;55.10;100858.75;12222746;19;20022;-80
2022/06/20 12:38:40;;;;;;;1.40;1.15;;;20.30;52.50;;;18.25;55.60;100832.22;12220298;19;20014;-79
2022/06/20 12:43:16;;;;;;;1.13;1.02;;;20.30;52.70;;;18.25;55.61;100835.69;12222227;19;20019;-79
2022/06/20 12:48:14;;;;;;;1.40;1.00;;;20.30;52.60;;;18.32;55.43;100826.28;12219063;19;20090;-80
2022/06/20 12:52:30;;;;;;;0.85;0.85;;;20.30;52.70;;;18.44;55.38;100866.69;12222231;19;20018;-80
2022/06/20 12:57:07;;;;;;;1.30;1.00;;;20.30;52.50;;;18.48;55.38;100861.97;12216882;19;20073;-80
2022/06/20 13:01:22;;;;;;;1.23;1.15;;;20.30;52.50;;;18.35;55.43;100852.44;12221649;19;20112;-80
2022/06/20 13:05:42;;;;;;;2.33;0.80;;;20.30;52.70;;;18.48;55.57;100862.81;12216733;19;20026;-80
2022/06/20 13:09:50;;;;;;;1.35;0.85;;;20.30;52.70;;;18.50;55.55;100862.69;12221272;19;20027;-80
2022/06/20 13:15:09;;;;;;;0.90;0.90;;;20.30;52.70;;;18.53;55.28;100847.38;12213385;19;20043;-80
2022/06/20 13:19:42;;;;;;;0.70;0.70;;;20.30;53.00;;;18.56;55.46;100812.72;12210838;19;20019;-79
2022/06/20 13:24:19;;;;;;;1.00;0.90;;;20.20;53.00;;;18.55;55.62;100816.38;12217017;19;20025;-82
2022/06/20 13:29:02;;;;;;;1.02;1.02;;;20.40;53.20;;;18.24;55.95;100753.91;12214040;19;20010;-81
2022/06/20 13:33:18;;;;;;;1.98;1.20;;;20.40;53.10;;;18.64;55.78;100809.41;12214724;19;20391;-81
2022/06/20 13:38:00;;;;;;;1.08;1.02;;;20.40;53.50;;;18.66;55.97;100852.47;12217539;19;20033;-81
2022/06/20 13:42:20;;;;;;;1.52;1.40;;;20.40;53.40;;;18.52;56.00;100819.28;12215531;19;20015;-80
2022/06/20 13:46:51;;;;;;;2.35;1.63;;;20.40;53.50;;;18.53;56.06;100822.75;12214207;19;20022;-80
2022/06/20 13:51:01;;;;;;;2.30;1.45;;;20.40;53.40;;;18.57;56.08;100824.16;12217282;19;20011;-80
2022/06/20 13:55:47;;;;;;;4.65;1.45;;;20.50;53.40;;;18.63;55.93;100846.56;12216169;19;20044;-80
2022/06/20 14:00:05;;;;;;;1.55;1.02;;;20.50;53.80;;;18.75;56.31;100856.13;12213287;19;20010;-80
2022/06/20 14:04:15;;;;;;;0.95;0.90;;;20.70;53.70;;;18.73;56.05;100852.75;12210125;19;20476;-79
2022/06/20 14:08:27;;;;;;;1.33;1.00;;;20.60;53.40;;;18.52;56.30;100808.69;12215910;19;20028;-80
2022/06/20 14:12:41;;;;;;;0.88;0.88;;;20.60;53.40;;;18.55;56.24;100813.72;12214714;19;20018;-80
2022/06/20 14:16:51;;;;;;;0.70;0.70;;;21.00;53.70;;;18.74;56.09;100812.97;12212736;19;20029;-80
2022/06/20 14:21:08;;;;;;;0.70;0.60;;;20.60;53.00;;;18.43;56.15;100747.84;12214863;19;20014;-79
2022/06/20 14:25:39;;;;;;;0.47;0.45;;;20.70;53.30;;;18.70;55.96;100830.03;12239614;19;20476;-80
2022/06/20 14:29:43;;;;;;;0.60;0.60;;;20.60;53.10;;;18.67;55.91;100790.63;12244360;19;20035;-79
2022/06/20 14:34:09;;;;;;;1.23;0.50;;;20.60;52.70;;;18.82;55.96;100803.50;12241272;19;20011;-79
2022/06/20 14:38:53;;;;;;;0.73;0.70;;;20.70;52.80;;;18.66;56.09;100820.72;12236778;19;20018;-79
2022/06/20 14:43:33;;;;;;;0.55;0.55;;;20.80;52.70;;;18.64;55.83;100833.22;12242431;19;20065;-78
2022/06/20 14:48:25;;;;;;;1.88;0.65;;;20.50;52.30;;;18.48;56.14;100824.97;12239686;19;20023;-78
2022/06/20 14:53:11;;;;;;;1.17;0.82;;;20.50;52.60;;;18.40;56.09;100793.88;12239883;19;20018;-78
2022/06/20 14:57:44;;;;;;;1.13;0.97;;;20.50;52.50;;;18.45;56.07;100802.25;12239490;19;20026;-79
2022/06/20 15:02:12;;;;;;;1.40;1.20;;;20.40;52.50;;;18.01;55.87;100735.59;12236833;19;20263;-80
2022/06/20 15:06:24;;;;;;;1.20;1.10;;;20.50;52.70;;;18.44;56.19;100803.22;12238243;19;20010;-82
2022/06/20 15:10:58;;;;;;;0.93;0.93;;;20.30;52.80;;;18.50;56.40;100783.34;12240139;19;20019;-81
2022/06/20 15:15:27;;;;;;;1.55;1.08;;;20.30;53.50;;;18.62;56.14;100789.38;12239508;19;20010;-81
2022/06/20 15:20:03;;;;;;;1.02;1.00;;;20.40;53.20;;;18.69;56.21;100788.69;12243286;19;20034;-81
2022/06/20 15:24:31;;;;;;;0.90;0.90;;;20.40;53.50;;;18.69;56.12;100761.41;12238827;19;20048;-81
2022/06/20 15:28:40;;;;;;;1.20;1.10;;;20.50;53.60;;;18.82;56.23;100755.88;12236114;19;20003;-80
2022/06/20 15:32:45;;;;;;;1.50;1.40;;;20.60;53.40;;;18.92;56.12;100754.06;12240514;19;20018;-81
2022/06/20 15:36:51;;;;;;;1.42;1.25;;;20.70;53.20;;;18.99;55.88;100745.44;12233065;19;20477;-81
2022/06/20 15:41:10;;;;;;;2.05;1.50;;;20.70;53.10;;;19.12;55.86;100752.25;12237658;19;20010;-80
2022/06/20 15:45:27;;;;;;;1.17;1.10;;;20.80;53.00;;;19.02;55.92;100731.94;12236872;19;20015;-81
2022/06/20 15:49:47;;;;;;;1.45;1.25;;;20.80;53.00;;;19.20;56.15;100742.66;12236911;19;20024;-80
2022/06/20 15:54:08;;;;;;;3.00;1.25;;;20.90;52.90;;;19.15;56.06;100714.94;12238883;19;20022;-81
2022/06/20 15:59:07;;;;;;;1.75;1.45;;;20.90;52.90;;;19.33;56.00;100721.16;12234249;19;20103;-80
2022/06/20 16:03:15;;;;;;;1.38;1.25;;;21.00;53.00;;;19.48;55.75;100723.41;12242546;19;20026;-81
2022/06/20 16:07:26;;;;;;;2.05;1.40;;;21.10;52.20;;;19.56;55.74;100724.34;12240860;19;20026;-81
2022/06/20 16:11:42;;;;;;;3.28;1.42;;;21.20;52.50;;;19.59;55.59;100723.22;12229224;19;20039;-80
2022/06/20 16:15:45;;;;;;;1.98;1.40;;;21.30;52.60;;;19.27;55.59;100668.78;12237807;19;20402;-82
2022/06/20 16:19:47;;;;;;;1.30;1.20;;;21.30;51.80;;;19.59;55.65;100712.63;12242723;19;20010;-82
2022/06/20 16:23:54;;;;;;;1.63;1.52;;;21.30;52.20;;;19.71;55.25;100734.50;12237162;19;20480;-82
2022/06/20 16:28:18;;;;;;;4.28;1.40;;;21.40;51.80;;;19.69;55.08;100721.44;12241590;19;20025;-82
2022/06/20 16:32:29;;;;;;;1.17;1.17;;;21.70;51.50;;;19.77;55.42;100723.38;12240171;19;20017;-82
2022/06/20 16:36:34;;;;;;;1.50;1.40;;;21.50;51.80;;;19.62;55.22;100697.28;12238484;19;20492;-82
2022/06/20 16:41:11;;;;;;;;;;;21.50;51.70;;;19.89;55.09;100704.47;12238235;19;20018;-82
2022/06/20 16:45:55;;;;;;;2.30;1.48;;;21.60;51.20;;;19.92;55.25;100713.09;12238706;19;19947;-81
2022/06/20 16:50:22;;;;;;;1.48;1.38;;;21.60;51.40;;;19.91;55.18;100704.31;12242441;19;20524;-82
2022/06/20 16:54:53;;;;;;;1.73;1.30;;;21.60;51.10;;;19.89;54.92;100709.75;12239545;19;20509;-83
2022/06/20 16:59:22;;;;;;;3.47;1.35;;;21.90;50.90;;;19.88;54.86;100705.44;12233193;19;20059;-83
2022/06/20 17:04:15;;;;;;;1.73;1.63;;;21.70;50.90;;;19.81;54.59;100693.75;12234564;19;20019;-84
2022/06/20 17:08:46;;;;;;;1.63;1.23;;;21.70;50.90;;;19.77;54.96;100687.09;12235298;19;20014;-84
2022/06/20 17:13:07;;;;;;;1.33;1.23;;;21.70;50.90;;;19.79;54.88;100698.34;12236336;19;20027;-84
2022/06/20 17:17:31;;;;;;;1.63;1.52;;;21.70;50.70;;;19.73;54.72;100700.75;12233467;19;20021;-83
2022/06/20 17:21:40;;;;;;;3.65;1.80;;;21.70;50.60;;;19.70;54.64;100703.72;12236510;19;20468;-86
2022/06/20 17:25:44;;;;;;;4.55;1.77;;;21.60;50.10;;;19.74;54.58;100700.63;12225495;19;20048;-84
2022/06/20 17:30:34;;;;;;;2.57;1.63;;;21.60;50.20;;;19.72;54.42;100702.59;12208046;19;20014;-85
2022/06/20 17:34:53;;;;;;;3.28;1.30;;;21.60;50.30;;;19.59;54.54;100680.84;12216956;19;20422;-85
2022/06/20 17:39:15;;;;;;;1.73;1.63;;;21.50;50.30;;;19.71;54.42;100703.53;12208091;19;20010;-84
2022/06/20 17:43:53;;;;;;;2.47;1.52;;;21.50;50.40;;;19.68;54.74;100701.19;12205662;19;20035;-84
2022/06/20 17:48:24;;;;;;;2.17;1.65;;;21.50;50.50;;;19.68;54.45;100698.53;12212040;19;20015;-84
2022/06/20 17:52:59;;;;;;;2.03;1.60;;;21.50;50.30;;;19.70;54.70;100703.72;12208594;19;20023;-84
2022/06/20 17:57:14;;;;;;;5.20;1.80;;;21.50;50.40;;;19.71;54.51;100702.72;12217079;19;20373;-84
2022/06/20 18:01:34;;;;;;;2.57;1.60;;;21.50;50.70;;;19.67;54.27;100697.72;12234056;19;20022;-85
2022/06/20 18:05:57;;;;;;;2.65;1.45;;;21.50;50.30;;;19.53;54.84;100670.84;12230082;19;20386;-84
2022/06/20 18:10:18;;;;;;;2.67;2.15;;;21.50;50.50;;;19.57;54.73;100688.09;12230136;19;20033;-85